Terminal Aerodrome Forecast
Issued by NWS Huntsville, AL

Home | Current Version | Previous Version | Text Only | Print | Product List | Glossary On
Versions: 1 2 3 4 5 6 7 8 9 10 11 12 13 14 15 16 17 18 19 20 21 22 23 24 25 26 27 28 29 30 31 32 33 34 35
000
FTUS44 KHUN 301555 AAA
TAFHSV
TAF AMD
KHSV 301555Z 3016/3112 19007KT P6SM VCSH SCT030 BKN035
     FM302000 20009KT P6SM VCTS BKN040CB
     FM310100 VRB04KT P6SM SCT040 SCT120
     FM310900 VRB03KT P6SM VCSH SCT040 BKN120=

USA.gov is the U.S. government's official web portal to all federal, state and local government web resources and services.